VABB/BOM METAR and TAF weather

Enter ICAO airport designator
Station Type Date Time Source
VABB METAR 2020/08/10 17:30 UTC NOAA

VABB 101730Z 22004KT 2500 HZ SCT018 SCT025 FEW030CB OVC080 28/27 Q1005 NOSIG


Station Type Date Time Source
VABB Decoded METAR 2020/08/10 17:30 UTC NOAA

Bombay / Santacruz, India (VABB) 19-07N 072-51E 14M
Aug 10, 2020 - 01:30 PM EDT / 2020.08.10 1730 UTC
Wind: from the SW (220 degrees) at 5 MPH (4 KT):0
Visibility: 1 mile(s):0
Sky conditions: overcast
Weather: haze; Cumulonimbus clouds observed
Temperature: 82 F (28 C)
Dew Point: 80 F (27 C)
Relative Humidity: 94%
Pressure (altimeter): 29.68 in. Hg (1005 hPa)
ob: VABB 101730Z 22004KT 2500 HZ SCT018 SCT025 FEW030CB OVC080 28/27 Q1005 NOSIG
cycle: 17

Station Type Date Time Source
VABB TAF 2020/08/10 18:57 UTC NOAA

TAF TAF VABB 101700Z 1018/1124 23010KT 3000 -RA HZ SCT018 SCT025 FEW030CB BKN090
TEMPO 1018/1024 1500 TSRA FEW010 FEW030CB OVC080
BECMG 1021/1023 17007KT
BECMG 1106/1108 23012KT 4000 -RA HZ
BECMG 1115/1117 17005KT

Example: see airport list